This is the latest recevied weather packets stored in our database for station/object HA9OZD-20. If no packets are shown the sender has not sent any weather packets the latest 1 day(s).
| Time | Temp. | Humidity | Pressure | Rain* | Wind** | Luminosity | Snow |
|---|---|---|---|---|---|---|---|
| 1778076698 | 20.56° C | 41% | 949 hPa | - | - | - | - |
| 1778076693 | 20.56° C | 41% | 949 hPa | - | - | - | - |
| 1778065879 | 19.44° C | 42% | 950 hPa | - | - | - | - |
| 1778062279 | 18.89° C | 44% | 950 hPa | - | - | - | - |
| 1778058675 | 16.67° C | 57% | 950 hPa | - | - | - | - |
| 1778058670 | 16.67° C | 57% | 950 hPa | - | - | - | - |
| 1778055065 | 15.56° C | 61% | 950 hPa | - | - | - | - |
| 1778047861 | 14.44° C | 64% | 949 hPa | - | - | - | - |
| 1778047856 | 14.44° C | 64% | 949 hPa | - | - | - | - |
| 1778044256 | 13.33° C | 64% | 949 hPa | - | - | - | - |
| 1778044251 | 13.33° C | 64% | 949 hPa | - | - | - | - |
| 1778040651 | 15° C | 56% | 948 hPa | - | - | - | - |
| 1778040647 | 15° C | 56% | 948 hPa | - | - | - | - |
| 1778037046 | 15° C | 55% | 948 hPa | - | - | - | - |
| 1778037042 | 15° C | 55% | 948 hPa | - | - | - | - |
| 1778033441 | 15.56° C | - | - | - | - | - | - |
| 1778029837 | 17.78° C | 37% | 948 hPa | - | - | - | - |
| 1778029833 | 17.78° C | 37% | 948 hPa | - | - | - | - |
| 1778026233 | 17.78° C | 36% | 948 hPa | - | - | - | - |
| 1778019024 | 19.44° C | 30% | 949 hPa | - | - | - | - |
| 1778011815 | 20.56° C | 27% | 948 hPa | - | - | - | - |
* Rain since midnight (hover to see other rain measurements)
** Current wind speed in m/s (hover to see current wind gust speed)